Atchaa 4 — FL7835 — position and weather

sailwx.info

Track history (hours):
 
Tides and Currents Weather Stations Pressure Air Temp Water Temp Dewpoint Dewpoint Depression Visibility Wind Speed Wind Dir Waves Ship Positions

Atchaa 4

Last reported at 2017-Dec-16 12:10 UTC. Time now 2017-Dec-18 22:25 UTC.
Position N 14°26' W 060°59'.

Length 13 m.

Type: Sailing vessel. MMSI: 227725530.

Date/timePositionNaut miles runAvg speedWind from/ knotsBaromVisibWave heightAir tempDewpointWater temp
2017-Dec-16 12:10N 14°26' W 060°59'1 5.8
2017-Dec-16 12:00N 14°26' W 060°58'2 5.0
2017-Dec-16 11:30N 14°26' W 060°55'2 3.2
2017-Dec-16 11:00N 14°26' W 060°53'2 3.7
2017-Dec-16 10:30N 14°28' W 060°53'0 0.0
2017-Dec-15 21:28N 14°28' W 060°53'1 1.1
2017-Dec-15 21:00N 14°28' W 060°52'  
2017-Dec-07 13:35N 14°26' W 061°00'0 4.5
2017-Dec-07 13:29N 14°26' W 060°60'2 4.5
2017-Dec-07 13:00N 14°26' W 060°58'2 4.3
2017-Dec-07 12:30N 14°26' W 060°55'2 4.3
2017-Dec-07 12:00N 14°27' W 060°53'  
Track history (hours):
 
Tides and Currents Weather Stations Pressure Air Temp Water Temp Dewpoint Dewpoint Depression Visibility Wind Speed Wind Dir Waves Ship Positions

Atchaa 4

Last reported at 2017-Dec-16 12:10 UTC. Time now 2017-Dec-18 22:25 UTC.
Position N 14°26' W 060°59'.

Length 13 m.

Type: Sailing vessel. MMSI: 227725530.

Date/timePositionNaut miles runAvg speedWind from/ knotsBaromVisibWave heightAir tempDewpointWater temp
2017-Dec-16 12:10N 14°26' W 060°59'1 5.8
2017-Dec-16 12:00N 14°26' W 060°58'2 5.0
2017-Dec-16 11:30N 14°26' W 060°55'2 3.2
2017-Dec-16 11:00N 14°26' W 060°53'2 3.7
2017-Dec-16 10:30N 14°28' W 060°53'0 0.0
2017-Dec-15 21:28N 14°28' W 060°53'1 1.1
2017-Dec-15 21:00N 14°28' W 060°52'  
2017-Dec-07 13:35N 14°26' W 061°00'0 4.5
2017-Dec-07 13:29N 14°26' W 060°60'2 4.5
2017-Dec-07 13:00N 14°26' W 060°58'2 4.3
2017-Dec-07 12:30N 14°26' W 060°55'2 4.3
2017-Dec-07 12:00N 14°27' W 060°53'  

Dump ship's entire track history